createdAt,value
2023-03-26T00:04:25.542Z,9.70
2023-03-26T00:09:29.820Z,9.70
2023-03-26T00:14:32.705Z,9.80
2023-03-26T00:19:35.006Z,9.80
2023-03-26T00:24:37.614Z,9.80
2023-03-26T00:29:39.978Z,9.90
2023-03-26T00:34:42.434Z,9.90
2023-03-26T00:39:44.701Z,9.90
2023-03-26T00:44:46.820Z,9.90
2023-03-26T00:49:49.079Z,9.80
2023-03-26T00:54:54.478Z,9.80
2023-03-26T00:59:56.902Z,9.70
2023-03-26T01:05:04.375Z,9.60
2023-03-26T01:10:07.569Z,9.60
2023-03-26T01:15:09.912Z,9.50
2023-03-26T01:20:26.775Z,9.40
2023-03-26T01:25:37.752Z,9.30
2023-03-26T01:30:49.603Z,9.30
2023-03-26T01:35:54.819Z,9.10
2023-03-26T01:41:05.304Z,9.20
2023-03-26T01:46:09.663Z,9.10
2023-03-26T01:51:12.686Z,9.10
2023-03-26T01:56:26.329Z,9.20
2023-03-26T02:01:36.910Z,9.20
2023-03-26T02:06:58.560Z,9.20
2023-03-26T02:12:03.592Z,9.10
2023-03-26T02:17:06.068Z,9.10
2023-03-26T02:22:16.065Z,9.20
2023-03-26T02:27:18.447Z,9.10
2023-03-26T02:32:20.441Z,9.10
2023-03-26T02:37:22.195Z,9.10
2023-03-26T02:42:24.111Z,9.10
2023-03-26T02:47:25.913Z,9.10
2023-03-26T02:52:30.062Z,9.00
2023-03-26T02:57:31.866Z,9.10
2023-03-26T03:02:33.747Z,9.10
2023-03-26T03:07:37.993Z,9.20
2023-03-26T03:12:42.457Z,9.20
2023-03-26T03:17:44.256Z,9.20
2023-03-26T03:22:46.001Z,9.10
2023-03-26T03:27:47.953Z,9.10
2023-03-26T03:32:49.794Z,9.10
2023-03-26T03:37:51.616Z,9.10
2023-03-26T03:42:53.412Z,9.10
2023-03-26T03:47:55.299Z,9.10
2023-03-26T03:52:59.104Z,9.20
2023-03-26T03:58:00.872Z,9.10
2023-03-26T04:03:06.344Z,9.10
2023-03-26T04:08:08.263Z,9.00
2023-03-26T04:13:11.283Z,9.00
2023-03-26T04:18:13.120Z,9.10
2023-03-26T04:23:18.198Z,9.00
2023-03-26T04:28:33.747Z,9.00
2023-03-26T04:33:35.769Z,9.00
2023-03-26T04:38:43.743Z,9.10
2023-03-26T04:43:50.835Z,9.00
2023-03-26T04:48:54.326Z,9.00
2023-03-26T04:54:00.230Z,9.00
2023-03-26T04:59:03.164Z,9.00
2023-03-26T05:04:05.139Z,9.10
2023-03-26T05:09:06.991Z,9.00
2023-03-26T05:14:09.193Z,8.90
2023-03-26T05:19:11.133Z,8.90
2023-03-26T05:24:12.881Z,8.90
2023-03-26T05:29:17.222Z,8.90
2023-03-26T05:34:20.709Z,8.90
2023-03-26T05:39:26.235Z,9.00
2023-03-26T05:44:28.164Z,8.90
2023-03-26T05:49:29.922Z,8.90
2023-03-26T05:54:31.986Z,8.90
2023-03-26T05:59:34.050Z,9.00
2023-03-26T06:04:40.994Z,9.00
2023-03-26T06:09:43.964Z,8.90
2023-03-26T06:14:47.210Z,9.00
2023-03-26T06:19:48.973Z,8.90
2023-03-26T06:24:52.875Z,8.70
2023-03-26T06:29:55.246Z,8.80
2023-03-26T06:34:57.401Z,8.80
2023-03-26T06:39:59.244Z,8.70
2023-03-26T06:45:01.316Z,8.70
2023-03-26T06:50:03.120Z,8.70
2023-03-26T06:55:06.580Z,8.60
2023-03-26T07:00:09.159Z,8.60
2023-03-26T07:05:11.064Z,8.60
2023-03-26T07:10:13.111Z,8.60
2023-03-26T07:15:14.998Z,8.50
2023-03-26T07:20:16.841Z,8.20
2023-03-26T07:25:19.960Z,8.30
2023-03-26T07:30:46.024Z,8.20
2023-03-26T07:36:04.887Z,8.30
2023-03-26T07:41:31.621Z,8.20
2023-03-26T07:46:37.209Z,8.20
2023-03-26T07:51:39.379Z,8.20
2023-03-26T07:56:56.519Z,8.10
2023-03-26T08:02:27.253Z,8.10
2023-03-26T08:08:06.925Z,8.10
2023-03-26T08:13:44.127Z,8.20
2023-03-26T08:19:24.379Z,8.20
2023-03-26T08:24:55.011Z,8.10
2023-03-26T08:30:09.744Z,8.10
2023-03-26T08:35:13.535Z,8.20
2023-03-26T08:40:27.915Z,8.10
2023-03-26T08:45:42.901Z,8.10
2023-03-26T08:51:03.297Z,8.10
2023-03-26T08:56:29.851Z,8.10
2023-03-26T09:01:55.811Z,8.10
2023-03-26T09:07:12.628Z,8.10
2023-03-26T09:12:49.567Z,8.10
2023-03-26T09:17:59.992Z,8.10
2023-03-26T09:23:07.537Z,8.20
2023-03-26T09:28:36.448Z,8.30
2023-03-26T09:34:01.870Z,8.30
2023-03-26T09:39:38.988Z,8.20
2023-03-26T09:44:59.535Z,8.30
2023-03-26T09:50:32.393Z,8.20
2023-03-26T09:55:49.769Z,8.10
2023-03-26T10:01:11.142Z,8.30
2023-03-26T10:06:47.013Z,8.10
2023-03-26T10:12:06.176Z,8.30
2023-03-26T10:17:46.729Z,8.10
2023-03-26T10:23:13.971Z,8.10
2023-03-26T10:28:24.961Z,8.10
2023-03-26T10:33:42.909Z,8.20
2023-03-26T10:39:09.377Z,8.20
2023-03-26T10:44:30.473Z,8.20
2023-03-26T10:50:03.000Z,8.30
2023-03-26T10:55:15.088Z,8.30
2023-03-26T11:00:26.246Z,8.30
2023-03-26T11:05:40.144Z,8.30
2023-03-26T11:11:09.321Z,8.40
2023-03-26T11:16:42.385Z,8.30
2023-03-26T11:22:02.590Z,8.20
2023-03-26T11:27:15.426Z,8.40
2023-03-26T11:32:24.349Z,8.30
2023-03-26T11:37:33.722Z,8.40
2023-03-26T11:42:35.939Z,8.40
2023-03-26T11:47:45.505Z,8.70
2023-03-26T11:52:48.082Z,8.60
2023-03-26T11:57:57.957Z,8.60
2023-03-26T12:03:00.379Z,8.60
2023-03-26T12:08:19.654Z,8.50
2023-03-26T12:13:21.667Z,8.50
2023-03-26T12:18:26.681Z,8.60
2023-03-26T12:23:51.331Z,8.80
2023-03-26T12:28:53.239Z,8.70
2023-03-26T12:34:07.959Z,8.70
2023-03-26T12:40:09.109Z,8.70
2023-03-26T12:45:14.285Z,8.60
2023-03-26T12:50:16.952Z,8.70
2023-03-26T12:55:27.771Z,8.60
2023-03-26T13:00:38.706Z,8.80
2023-03-26T13:06:27.705Z,8.90
2023-03-26T13:12:07.157Z,9.10
2023-03-26T13:17:32.718Z,9.10
2023-03-26T13:22:41.455Z,9.10
2023-03-26T13:27:53.787Z,9.20
2023-03-26T13:33:19.531Z,9.20
2023-03-26T13:38:42.880Z,9.20
2023-03-26T13:44:19.688Z,9.20
2023-03-26T13:49:37.494Z,9.30
2023-03-26T13:54:49.728Z,9.20
2023-03-26T13:59:57.868Z,9.30
2023-03-26T14:05:26.027Z,9.30
2023-03-26T14:10:35.364Z,9.30
2023-03-26T14:15:55.813Z,9.10
2023-03-26T14:21:21.927Z,9.00
2023-03-26T14:26:53.213Z,9.10
2023-03-26T14:32:04.290Z,9.20
2023-03-26T14:37:28.131Z,9.30
2023-03-26T14:42:46.032Z,9.40
2023-03-26T14:48:09.889Z,9.30
2023-03-26T14:53:47.521Z,9.30
2023-03-26T14:59:04.364Z,9.30
2023-03-26T15:04:27.395Z,9.10
2023-03-26T15:09:41.574Z,9.20
2023-03-26T15:15:08.121Z,9.20
2023-03-26T15:20:44.118Z,9.10
2023-03-26T15:26:20.414Z,9.20
2023-03-26T15:31:31.439Z,9.10
2023-03-26T15:36:53.265Z,9.00
2023-03-26T15:42:11.546Z,9.00
2023-03-26T15:47:23.257Z,8.90
2023-03-26T15:52:49.657Z,9.00
2023-03-26T15:58:02.417Z,9.00
2023-03-26T16:03:16.616Z,8.90
2023-03-26T16:08:38.690Z,8.90
2023-03-26T16:13:42.900Z,8.80
2023-03-26T16:18:54.688Z,8.70
2023-03-26T16:24:12.604Z,8.50
2023-03-26T16:29:14.504Z,8.50
2023-03-26T16:34:24.949Z,8.50
2023-03-26T16:39:47.466Z,8.40
2023-03-26T16:45:21.825Z,8.50
2023-03-26T16:50:29.957Z,8.30
2023-03-26T16:55:46.895Z,8.30
2023-03-26T17:00:49.740Z,8.30
2023-03-26T17:05:56.373Z,8.20
2023-03-26T17:11:22.186Z,8.20
2023-03-26T17:16:30.083Z,8.20
2023-03-26T17:21:52.391Z,8.30
2023-03-26T17:27:04.506Z,8.30
2023-03-26T17:32:12.384Z,8.40
2023-03-26T17:37:17.232Z,8.40
2023-03-26T17:42:25.658Z,8.40
2023-03-26T17:47:34.772Z,8.30
2023-03-26T17:52:57.497Z,8.30
2023-03-26T17:58:15.401Z,8.30
2023-03-26T18:03:23.584Z,8.20
2023-03-26T18:08:49.620Z,8.20
2023-03-26T18:14:13.032Z,8.10
2023-03-26T18:19:25.022Z,7.90
2023-03-26T18:24:31.486Z,7.80
2023-03-26T18:29:35.552Z,7.80
2023-03-26T18:34:39.688Z,7.70
2023-03-26T18:39:52.176Z,7.60
2023-03-26T18:44:59.870Z,7.60
2023-03-26T18:50:07.085Z,7.60
2023-03-26T18:55:13.974Z,7.50
2023-03-26T19:00:20.819Z,7.50
2023-03-26T19:05:22.782Z,7.60
2023-03-26T19:10:25.190Z,7.50
2023-03-26T19:15:32.123Z,7.50
2023-03-26T19:20:42.287Z,7.50
2023-03-26T19:25:54.937Z,7.50
2023-03-26T19:31:06.897Z,7.40
2023-03-26T19:36:15.337Z,7.30
2023-03-26T19:41:26.657Z,7.20
2023-03-26T19:46:53.734Z,7.30
2023-03-26T19:52:27.160Z,7.30
2023-03-26T19:57:30.986Z,7.20
2023-03-26T20:02:34.399Z,7.10
2023-03-26T20:07:39.289Z,7.00
2023-03-26T20:12:41.117Z,6.90
2023-03-26T20:17:43.017Z,6.90
2023-03-26T20:22:48.297Z,6.90
2023-03-26T20:27:53.328Z,6.90
2023-03-26T20:33:11.863Z,6.80
2023-03-26T20:38:17.039Z,6.70
2023-03-26T20:43:21.781Z,6.70
2023-03-26T20:48:25.283Z,6.80
2023-03-26T20:53:28.134Z,6.70
2023-03-26T20:58:32.405Z,6.70
2023-03-26T21:03:35.796Z,6.70
2023-03-26T21:08:38.728Z,6.60
2023-03-26T21:13:56.553Z,6.60
2023-03-26T21:18:59.039Z,6.60
2023-03-26T21:24:19.404Z,6.60
2023-03-26T21:29:22.011Z,6.60
2023-03-26T21:34:24.113Z,6.60
2023-03-26T21:39:27.849Z,6.60
2023-03-26T21:44:29.870Z,6.50
2023-03-26T21:49:32.246Z,6.60
2023-03-26T21:54:34.384Z,6.60
2023-03-26T21:59:45.527Z,6.60
2023-03-26T22:05:16.443Z,6.60
2023-03-26T22:10:19.084Z,6.60
2023-03-26T22:15:22.185Z,6.60
2023-03-26T22:20:25.204Z,6.50
2023-03-26T22:25:27.733Z,6.40
2023-03-26T22:30:29.538Z,6.50
2023-03-26T22:40:33.909Z,6.40
2023-03-26T22:45:37.523Z,6.30
2023-03-26T22:50:39.370Z,6.30
2023-03-26T22:55:41.150Z,6.20
2023-03-26T23:00:43.565Z,6.10
2023-03-26T23:05:56.124Z,6.20
2023-03-26T23:10:58.782Z,6.10
2023-03-26T23:16:02.204Z,6.10
2023-03-26T23:21:04.482Z,6.00
2023-03-26T23:26:14.949Z,6.00
2023-03-26T23:31:17.919Z,5.90
2023-03-26T23:36:23.569Z,6.00
2023-03-26T23:41:25.441Z,5.90
2023-03-26T23:46:34.728Z,5.90
2023-03-26T23:51:37.077Z,5.80
2023-03-26T23:56:38.867Z,5.80
